Time;durP1;ratioP1;P1;durP2;ratioP2;P2;SDS_P1;SDS_P2;PMS_P1;PMS_P2;Temp;Humidity;BMP_temperature;BMP_pressure;BME280_temperature;BME280_humidity;BME280_pressure;Samples;Min_cycle;Max_cycle;Signal;HPM_P1;HPM_P2
2022/01/15 00:02:20;;;;;;;49.50;16.33;;;;;4.50;102680.00;;;;5062547;28;20224;-71
2022/01/15 00:05:07;;;;;;;48.83;16.70;;;;;4.50;102671.00;;;;5080467;28;20231;-71
2022/01/15 00:07:54;;;;;;;53.63;17.93;;;;;4.50;102686.00;;;;5068108;28;20282;-72
2022/01/15 00:10:40;;;;;;;64.87;16.73;;;;;4.60;102671.00;;;;5067142;28;20346;-73
2022/01/15 00:13:29;;;;;;;45.87;15.33;;;;;4.50;102660.00;;;;5068133;28;20576;-71
2022/01/15 00:16:28;;;;;;;50.60;17.00;;;;;4.60;102653.00;;;;5067339;28;20362;-72
2022/01/15 00:19:17;;;;;;;51.60;16.93;;;;;4.60;102673.00;;;;5067663;28;20224;-71
2022/01/15 00:22:03;;;;;;;57.63;17.03;;;;;4.60;102669.00;;;;5061606;28;20238;-72
2022/01/15 00:24:50;;;;;;;58.97;17.53;;;;;4.50;102659.00;;;;5067686;28;20266;-71
2022/01/15 00:27:37;;;;;;;57.83;18.83;;;;;4.50;102631.00;;;;5067510;28;20251;-71
2022/01/15 00:30:23;;;;;;;58.97;18.43;;;;;4.50;102647.00;;;;5067392;28;20226;-71
2022/01/15 00:33:11;;;;;;;55.40;17.07;;;;;4.50;102647.00;;;;5067292;28;20235;-70
2022/01/15 00:35:58;;;;;;;53.83;18.03;;;;;4.50;102639.00;;;;5060759;28;20232;-71
2022/01/15 00:38:45;;;;;;;55.03;17.90;;;;;4.50;102618.00;;;;5067270;28;20220;-72
2022/01/15 00:41:32;;;;;;;58.00;18.37;;;;;4.50;102594.00;;;;5067061;28;20308;-71
2022/01/15 00:44:18;;;;;;;48.23;16.07;;;;;4.50;102632.00;;;;5063788;28;20232;-73
2022/01/15 00:47:04;;;;;;;59.13;17.80;;;;;4.50;102641.00;;;;5067365;28;20230;-71
2022/01/15 00:49:53;;;;;;;56.07;17.10;;;;;4.50;102632.00;;;;5060622;28;20254;-71
2022/01/15 00:52:41;;;;;;;52.37;16.50;;;;;4.50;102639.00;;;;5066605;28;20352;-71
2022/01/15 00:55:28;;;;;;;45.93;16.23;;;;;4.60;102626.00;;;;5067360;28;20608;-71
2022/01/15 00:58:15;;;;;;;55.00;17.20;;;;;4.60;102625.00;;;;5066505;28;20236;-70
2022/01/15 01:01:01;;;;;;;52.33;17.80;;;;;4.60;102625.00;;;;5066739;28;20765;-72
2022/01/15 01:03:48;;;;;;;53.47;17.50;;;;;4.60;102620.00;;;;5059693;28;20220;-70
2022/01/15 01:06:35;;;;;;;60.47;18.13;;;;;4.60;102623.00;;;;5066947;28;20367;-71
2022/01/15 01:09:25;;;;;;;57.50;17.07;;;;;4.50;102617.00;;;;5066782;28;20610;-73
2022/01/15 01:12:26;;;;;;;59.50;17.53;;;;;4.60;102620.00;;;;5062601;28;20232;-71
2022/01/15 01:24:35;;;;;;;54.17;16.33;;;;;4.50;102596.00;;;;5048538;28;20235;-72
2022/01/15 01:27:27;;;;;;;64.73;18.63;;;;;4.50;102590.00;;;;5063366;28;20228;-70
2022/01/15 01:30:19;;;;;;;60.87;17.77;;;;;4.50;102606.00;;;;5066043;28;20369;-71
2022/01/15 01:33:18;;;;;;;71.60;19.87;;;;;4.40;102603.00;;;;5062548;28;20236;-71
2022/01/15 01:36:16;;;;;;;57.13;17.93;;;;;4.50;102604.00;;;;5051830;28;20236;-72
2022/01/15 01:39:08;;;;;;;61.60;18.40;;;;;4.50;102591.00;;;;5056659;28;20347;-72
2022/01/15 01:42:09;;;;;;;59.93;18.77;;;;;4.50;102595.00;;;;5050923;28;20249;-72
2022/01/15 01:45:00;;;;;;;59.77;17.80;;;;;4.50;102591.00;;;;5058708;28;20356;-72
2022/01/15 01:47:46;;;;;;;59.63;17.17;;;;;4.50;102583.00;;;;5054314;28;20634;-71
2022/01/15 01:50:32;;;;;;;53.37;16.80;;;;;4.50;102573.00;;;;5078572;28;20230;-71
2022/01/15 01:53:19;;;;;;;58.67;16.33;;;;;4.60;102572.00;;;;5062661;28;20259;-72
2022/01/15 01:56:05;;;;;;;62.10;16.53;;;;;4.50;102573.00;;;;5065490;28;20231;-70
2022/01/15 01:58:53;;;;;;;48.70;16.30;;;;;4.50;102575.00;;;;5066291;28;20259;-71
2022/01/15 02:01:39;;;;;;;59.77;15.83;;;;;4.50;102586.00;;;;5064770;28;20762;-67
2022/01/15 02:04:26;;;;;;;73.27;17.50;;;;;4.50;102579.00;;;;5066452;28;20235;-71
2022/01/15 02:07:12;;;;;;;63.23;17.33;;;;;4.50;102580.00;;;;5065278;28;20780;-71
2022/01/15 02:09:59;;;;;;;57.43;16.63;;;;;4.50;102579.00;;;;5064650;28;20232;-73
2022/01/15 02:12:46;;;;;;;49.00;15.43;;;;;4.50;102568.00;;;;5065389;28;20231;-73
2022/01/15 02:15:36;;;;;;;50.57;16.47;;;;;4.50;102558.00;;;;5064317;28;20228;-69
2022/01/15 02:18:22;;;;;;;54.27;15.53;;;;;4.60;102556.00;;;;5065362;28;20306;-72
2022/01/15 02:24:15;;;;;;;56.80;16.57;;;;;4.60;102560.00;;;;5061461;28;20236;-72
2022/01/15 02:27:02;;;;;;;58.07;16.17;;;;;4.60;102555.00;;;;5060738;28;20295;-72
2022/01/15 02:29:48;;;;;;;65.37;15.87;;;;;4.60;102556.00;;;;5060140;28;20235;-72
2022/01/15 02:32:36;;;;;;;60.60;15.93;;;;;4.60;102560.00;;;;5064110;28;20335;-70
2022/01/15 02:35:22;;;;;;;61.10;15.93;;;;;4.60;102551.00;;;;5056559;28;20228;-72
2022/01/15 02:38:11;;;;;;;62.03;16.10;;;;;4.60;102544.00;;;;5056788;28;20332;-71
2022/01/15 02:40:58;;;;;;;62.33;17.33;;;;;4.50;102527.00;;;;5065330;28;20312;-71
2022/01/15 02:43:44;;;;;;;58.03;16.30;;;;;4.50;102538.00;;;;5057413;28;20877;-70
2022/01/15 02:48:00;;;;;;;62.97;16.20;;;;;4.50;102534.00;;;;5065161;28;20231;-71
2022/01/15 02:49:43;;;;;;;54.93;15.57;;;;;4.60;102536.00;;;;5065458;28;20231;-72
2022/01/15 02:52:30;;;;;;;52.97;15.23;;;;;4.60;102520.00;;;;5063407;28;20223;-72
2022/01/15 02:55:18;;;;;;;52.47;16.17;;;;;4.60;102540.00;;;;5065401;28;20231;-71
2022/01/15 02:58:04;;;;;;;57.07;14.63;;;;;4.60;102532.00;;;;5065456;28;20223;-72
2022/01/15 03:00:51;;;;;;;55.80;15.83;;;;;4.60;102525.00;;;;5064600;28;20712;-71
2022/01/15 03:03:38;;;;;;;54.07;15.13;;;;;4.60;102518.00;;;;5064946;28;20235;-72
2022/01/15 03:06:24;;;;;;;55.53;14.70;;;;;4.60;102520.00;;;;5065296;28;20215;-72
2022/01/15 03:09:11;;;;;;;51.90;14.80;;;;;4.60;102525.00;;;;5063602;28;20278;-71
2022/01/15 03:12:02;;;;;;;51.37;13.93;;;;;4.60;102503.00;;;;5058401;28;20660;-72
2022/01/15 03:14:49;;;;;;;48.33;14.63;;;;;4.60;102497.00;;;;5064658;28;20313;-73
2022/01/15 03:17:36;;;;;;;50.40;14.40;;;;;4.50;102498.00;;;;5062093;28;20227;-71
2022/01/15 03:20:22;;;;;;;49.40;14.07;;;;;4.60;102496.00;;;;5064612;28;20840;-72
2022/01/15 03:23:08;;;;;;;56.03;14.63;;;;;4.60;102502.00;;;;5060240;28;20792;-72
2022/01/15 03:25:55;;;;;;;49.83;14.10;;;;;4.60;102498.00;;;;5064982;28;20232;-74
2022/01/15 03:28:43;;;;;;;50.40;14.93;;;;;4.60;102504.00;;;;5064942;28;20278;-72
2022/01/15 03:31:29;;;;;;;49.13;13.37;;;;;4.60;102505.00;;;;5064373;28;20290;-71
2022/01/15 03:34:15;;;;;;;45.00;14.37;;;;;4.60;102496.00;;;;5064190;28;20235;-70
2022/01/15 03:37:02;;;;;;;42.57;13.33;;;;;4.60;102484.00;;;;5060924;28;20904;-71
2022/01/15 03:39:48;;;;;;;48.07;13.57;;;;;4.50;102496.00;;;;5067761;28;20722;-71
2022/01/15 03:42:35;;;;;;;49.80;14.70;;;;;4.60;102494.00;;;;5068313;28;20227;-68
2022/01/15 03:45:22;;;;;;;41.70;12.40;;;;;4.60;102467.00;;;;5063958;28;20274;-71
2022/01/15 03:48:09;;;;;;;49.63;13.03;;;;;4.60;102481.00;;;;5077868;28;20235;-72
2022/01/15 03:50:55;;;;;;;44.73;12.87;;;;;4.60;102489.00;;;;5067861;28;20985;-71
2022/01/15 03:53:41;;;;;;;46.87;12.87;;;;;4.50;102485.00;;;;5067637;28;20845;-71
2022/01/15 03:56:28;;;;;;;49.90;14.97;;;;;4.60;102474.00;;;;5065684;28;20239;-72
2022/01/15 03:59:14;;;;;;;46.87;13.07;;;;;4.60;102471.00;;;;5067196;28;20230;-72
2022/01/15 04:02:02;;;;;;;47.10;13.30;;;;;4.50;102476.00;;;;5067525;28;20358;-72
2022/01/15 04:04:48;;;;;;;44.37;12.43;;;;;4.60;102460.00;;;;5067959;28;20315;-72
2022/01/15 04:07:35;;;;;;;52.07;13.60;;;;;4.60;102457.00;;;;5068089;28;20346;-70
2022/01/15 04:10:21;;;;;;;48.43;13.73;;;;;4.60;102455.00;;;;5064537;28;20248;-71
2022/01/15 04:13:08;;;;;;;43.37;14.13;;;;;4.60;102454.00;;;;5067557;28;20607;-71
2022/01/15 04:15:54;;;;;;;50.77;15.00;;;;;4.60;102441.00;;;;5066244;28;20294;-71
2022/01/15 04:18:42;;;;;;;48.57;13.57;;;;;4.60;102444.00;;;;5069513;28;20298;-71
2022/01/15 04:21:28;;;;;;;43.23;14.03;;;;;4.50;102451.00;;;;5067468;28;20752;-69
2022/01/15 04:24:15;;;;;;;46.07;14.63;;;;;4.60;102450.00;;;;5063924;28;20224;-70
2022/01/15 04:27:01;;;;;;;43.37;13.13;;;;;4.70;102446.00;;;;5067813;28;20644;-68
2022/01/15 04:29:47;;;;;;;48.47;14.90;;;;;4.60;102437.00;;;;5067943;28;20722;-70
2022/01/15 04:32:33;;;;;;;46.10;12.73;;;;;4.70;102443.00;;;;5067052;28;20235;-72
2022/01/15 04:35:21;;;;;;;39.13;12.43;;;;;4.80;102431.00;;;;5067384;28;20604;-72
2022/01/15 04:38:11;;;;;;;41.90;12.03;;;;;4.70;102430.00;;;;5064241;28;20251;-72
2022/01/15 04:40:57;;;;;;;49.37;13.43;;;;;4.70;102430.00;;;;5059352;28;20299;-72
2022/01/15 04:43:43;;;;;;;39.13;11.60;;;;;4.60;102427.00;;;;5070805;28;20226;-68
2022/01/15 04:46:30;;;;;;;43.13;11.97;;;;;4.70;102429.00;;;;5069047;28;20232;-71
2022/01/15 04:49:16;;;;;;;46.37;12.77;;;;;4.70;102428.00;;;;5066390;28;20618;-73
2022/01/15 04:52:04;;;;;;;45.23;13.77;;;;;4.70;102422.00;;;;5061439;28;20367;-71
2022/01/15 04:54:51;;;;;;;45.87;13.47;;;;;4.70;102416.00;;;;5063390;28;20338;-72
2022/01/15 04:57:38;;;;;;;42.50;13.33;;;;;4.70;102420.00;;;;5067135;28;20231;-73
2022/01/15 05:00:24;;;;;;;44.03;14.03;;;;;4.70;102423.00;;;;5066695;28;20244;-72
2022/01/15 05:03:11;;;;;;;39.60;12.60;;;;;4.70;102431.00;;;;5066857;28;20274;-71
2022/01/15 05:05:57;;;;;;;42.03;13.67;;;;;4.70;102419.00;;;;5060966;28;20334;-71
2022/01/15 05:08:46;;;;;;;40.40;13.23;;;;;4.60;102408.00;;;;5066108;28;20769;-71
2022/01/15 05:11:44;;;;;;;40.10;13.13;;;;;4.70;102402.00;;;;5066461;28;20261;-70
2022/01/15 05:14:31;;;;;;;37.50;13.30;;;;;4.80;102408.00;;;;5065279;28;20232;-71
2022/01/15 05:17:17;;;;;;;43.50;12.80;;;;;4.90;102400.00;;;;5066598;28;20275;-74
2022/01/15 05:20:05;;;;;;;45.53;13.23;;;;;4.90;102410.00;;;;5060979;28;20335;-72
2022/01/15 05:22:51;;;;;;;45.30;13.57;;;;;4.80;102407.00;;;;5059625;28;20270;-71
2022/01/15 05:25:39;;;;;;;42.00;12.50;;;;;4.70;102409.00;;;;5066462;28;20315;-70
2022/01/15 05:28:25;;;;;;;45.07;13.37;;;;;4.60;102405.00;;;;5066359;28;20227;-71
2022/01/15 05:31:12;;;;;;;38.80;13.13;;;;;4.60;102410.00;;;;5065755;28;20801;-73
2022/01/15 05:33:58;;;;;;;38.50;12.40;;;;;4.60;102410.00;;;;5065440;28;20636;-72
2022/01/15 05:36:44;;;;;;;30.70;11.63;;;;;4.70;102411.00;;;;5066313;28;20746;-70
2022/01/15 05:39:30;;;;;;;38.50;12.50;;;;;4.70;102405.00;;;;5066518;28;20342;-73
2022/01/15 05:42:18;;;;;;;32.03;11.70;;;;;4.80;102402.00;;;;5065727;28;20227;-70
2022/01/15 05:45:05;;;;;;;31.50;11.00;;;;;4.70;102401.00;;;;5065643;28;20355;-70
2022/01/15 05:47:52;;;;;;;30.50;10.90;;;;;4.70;102383.00;;;;5066299;28;20251;-72
2022/01/15 05:50:38;;;;;;;32.03;11.03;;;;;4.70;102390.00;;;;5065009;28;20235;-73
2022/01/15 05:53:24;;;;;;;28.77;11.07;;;;;4.60;102392.00;;;;5065763;28;20227;-71
2022/01/15 05:56:11;;;;;;;30.53;10.90;;;;;4.60;102402.00;;;;5066464;28;20239;-69
2022/01/15 05:58:58;;;;;;;30.77;11.43;;;;;4.70;102393.00;;;;5066093;28;20235;-73
2022/01/15 06:01:45;;;;;;;30.30;11.67;;;;;4.60;102381.00;;;;5065561;28;20224;-72
2022/01/15 06:04:31;;;;;;;28.77;11.03;;;;;4.60;102393.00;;;;5066411;28;20227;-72
2022/01/15 06:07:18;;;;;;;31.73;11.43;;;;;4.60;102412.00;;;;5070151;28;20285;-71
2022/01/15 06:10:05;;;;;;;37.23;13.40;;;;;4.70;102405.00;;;;5063091;28;20606;-70
2022/01/15 06:12:51;;;;;;;31.67;11.57;;;;;4.70;102397.00;;;;5064809;28;20312;-71
2022/01/15 06:15:38;;;;;;;27.83;10.77;;;;;4.70;102404.00;;;;5065410;28;20294;-73
2022/01/15 06:18:25;;;;;;;27.73;10.80;;;;;4.70;102399.00;;;;5066073;28;20228;-70
2022/01/15 06:21:14;;;;;;;26.70;10.50;;;;;4.70;102396.00;;;;5064857;28;20239;-71
2022/01/15 06:24:00;;;;;;;29.17;11.57;;;;;4.70;102399.00;;;;5065807;28;20347;-73
2022/01/15 06:26:46;;;;;;;28.50;11.37;;;;;4.70;102393.00;;;;5065528;28;20330;-71
2022/01/15 06:29:33;;;;;;;30.23;12.10;;;;;4.60;102398.00;;;;5065291;28;20630;-70
2022/01/15 06:32:20;;;;;;;32.60;11.17;;;;;4.60;102394.00;;;;5062282;28;20263;-72
2022/01/15 06:35:09;;;;;;;27.73;10.13;;;;;4.60;102377.00;;;;5065229;28;20227;-71
2022/01/15 06:37:56;;;;;;;28.87;11.70;;;;;4.50;102396.00;;;;5065578;28;20301;-71
2022/01/15 06:40:42;;;;;;;28.63;11.27;;;;;4.50;102392.00;;;;5064991;28;20710;-71
2022/01/15 06:43:28;;;;;;;29.60;11.67;;;;;4.60;102399.00;;;;5063735;28;20232;-70
2022/01/15 06:46:14;;;;;;;28.17;11.03;;;;;4.70;102396.00;;;;5064588;28;20236;-72
2022/01/15 06:49:02;;;;;;;27.13;11.30;;;;;4.60;102395.00;;;;5065561;28;20243;-71
2022/01/15 06:51:49;;;;;;;24.03;10.03;;;;;4.60;102399.00;;;;5064498;28;20246;-72
2022/01/15 06:54:35;;;;;;;30.73;11.00;;;;;4.70;102396.00;;;;5065103;28;20228;-72
2022/01/15 06:57:22;;;;;;;23.83;10.17;;;;;4.60;102396.00;;;;5064465;28;20335;-71
2022/01/15 07:00:11;;;;;;;23.57;10.23;;;;;4.70;102391.00;;;;5064780;28;20293;-71
2022/01/15 07:03:00;;;;;;;25.57;10.33;;;;;4.70;102399.00;;;;5058717;28;20235;-72
2022/01/15 07:05:48;;;;;;;28.97;11.17;;;;;4.60;102397.00;;;;5065179;28;20274;-70
2022/01/15 07:08:34;;;;;;;31.20;11.50;;;;;4.60;102391.00;;;;5064960;28;20231;-72
2022/01/15 07:11:20;;;;;;;24.73;10.97;;;;;4.60;102391.00;;;;5065274;28;20306;-72
2022/01/15 07:14:07;;;;;;;27.83;11.10;;;;;4.70;102390.00;;;;5068935;28;20227;-71
2022/01/15 07:16:53;;;;;;;29.30;11.70;;;;;4.70;102384.00;;;;5062409;28;20227;-71
2022/01/15 07:19:40;;;;;;;29.97;11.90;;;;;4.60;102377.00;;;;5068844;28;20227;-72
2022/01/15 07:22:27;;;;;;;32.07;12.80;;;;;4.70;102374.00;;;;5069281;28;20226;-71
2022/01/15 07:25:14;;;;;;;29.37;11.50;;;;;4.60;102370.00;;;;5064647;28;20290;-71
2022/01/15 07:28:01;;;;;;;38.40;12.93;;;;;4.60;102362.00;;;;5069786;28;20223;-71
2022/01/15 07:30:47;;;;;;;27.43;11.80;;;;;4.60;102371.00;;;;5069069;28;20223;-72
2022/01/15 07:33:33;;;;;;;29.57;11.70;;;;;4.70;102354.00;;;;5067530;28;20262;-70
2022/01/15 07:36:19;;;;;;;32.50;12.70;;;;;4.60;102352.00;;;;5068220;28;20829;-72
2022/01/15 07:39:08;;;;;;;30.17;12.77;;;;;4.60;102350.00;;;;5068860;28;20246;-72
2022/01/15 07:41:55;;;;;;;33.53;13.97;;;;;4.60;102348.00;;;;5062001;28;20354;-71
2022/01/15 07:44:41;;;;;;;38.90;14.20;;;;;4.60;102359.00;;;;5066781;28;20425;-73
2022/01/15 07:47:28;;;;;;;34.00;13.20;;;;;4.60;102362.00;;;;5062496;28;20790;-73
2022/01/15 07:50:17;;;;;;;32.43;13.63;;;;;4.70;102357.00;;;;5054192;28;20231;-70
2022/01/15 07:53:03;;;;;;;33.83;14.17;;;;;4.60;102368.00;;;;5067841;28;20227;-70
2022/01/15 07:55:51;;;;;;;34.03;13.80;;;;;4.70;102365.00;;;;5057022;28;20219;-72
2022/01/15 07:58:37;;;;;;;37.03;15.77;;;;;4.70;102362.00;;;;5068250;28;20293;-71
2022/01/15 08:01:29;;;;;;;34.57;13.77;;;;;4.60;102372.00;;;;5067900;28;20250;-73
2022/01/15 08:04:16;;;;;;;34.67;13.60;;;;;4.80;102374.00;;;;5064954;28;20232;-71
2022/01/15 08:07:03;;;;;;;32.80;13.17;;;;;4.60;102356.00;;;;5067204;28;20227;-71
2022/01/15 08:09:49;;;;;;;41.53;17.43;;;;;4.80;102372.00;;;;5069310;28;20698;-71
2022/01/15 08:12:43;;;;;;;41.50;16.73;;;;;4.70;102372.00;;;;5068042;28;20235;-71
2022/01/15 08:15:33;;;;;;;37.37;14.93;;;;;4.80;102368.00;;;;5075826;28;20223;-71
2022/01/15 08:18:21;;;;;;;41.37;14.00;;;;;4.70;102353.00;;;;5072333;28;20305;-70
2022/01/15 08:21:07;;;;;;;38.93;14.17;;;;;4.60;102362.00;;;;5063648;28;20342;-69
2022/01/15 08:23:53;;;;;;;41.20;15.33;;;;;4.60;102354.00;;;;5067717;28;20236;-72
2022/01/15 08:26:40;;;;;;;44.23;15.60;;;;;4.50;102367.00;;;;5068894;28;20753;-72
2022/01/15 08:29:27;;;;;;;35.00;14.57;;;;;4.60;102350.00;;;;5069391;28;21148;-73
2022/01/15 08:32:13;;;;;;;45.33;16.17;;;;;4.50;102337.00;;;;5064683;28;20235;-70
2022/01/15 08:35:00;;;;;;;41.63;15.57;;;;;4.60;102355.00;;;;5069850;28;20223;-72
2022/01/15 08:37:46;;;;;;;38.80;15.27;;;;;4.70;102351.00;;;;5068990;28;20278;-71
2022/01/15 08:40:33;;;;;;;40.37;16.93;;;;;4.60;102360.00;;;;5080808;28;20628;-72
2022/01/15 08:43:19;;;;;;;39.03;15.57;;;;;4.80;102357.00;;;;5086888;28;20322;-71
2022/01/15 08:46:07;;;;;;;42.83;15.63;;;;;4.80;102335.00;;;;5086971;28;20267;-75
2022/01/15 08:48:54;;;;;;;42.80;15.30;;;;;4.70;102350.00;;;;5069547;28;20932;-70
2022/01/15 08:51:40;;;;;;;37.97;14.67;;;;;4.50;102348.00;;;;5056905;28;20257;-71
2022/01/15 08:54:26;;;;;;;40.83;14.77;;;;;4.60;102347.00;;;;5079304;28;20599;-70
2022/01/15 08:57:13;;;;;;;38.10;14.13;;;;;4.50;102342.00;;;;5062292;28;20231;-72
2022/01/15 08:59:59;;;;;;;38.80;13.70;;;;;4.60;102343.00;;;;5073934;28;20235;-69
2022/01/15 09:02:48;;;;;;;35.33;12.87;;;;;4.60;102356.00;;;;5067170;28;20614;-72
2022/01/15 09:05:34;;;;;;;40.70;13.77;;;;;4.70;102347.00;;;;5066873;28;20735;-73
2022/01/15 09:08:24;;;;;;;41.33;14.93;;;;;4.50;102344.00;;;;5064454;28;20223;-70
2022/01/15 09:11:11;;;;;;;35.20;14.20;;;;;4.70;102338.00;;;;5062120;28;20717;-69
2022/01/15 09:13:57;;;;;;;34.47;13.47;;;;;4.60;102335.00;;;;5067076;28;20309;-69
2022/01/15 09:16:43;;;;;;;36.47;13.70;;;;;4.60;102336.00;;;;5067054;28;20223;-70
2022/01/15 09:19:33;;;;;;;34.50;13.50;;;;;4.60;102341.00;;;;5065503;28;20596;-72
2022/01/15 09:22:19;;;;;;;35.97;14.20;;;;;4.70;102338.00;;;;5065903;28;20236;-70
2022/01/15 09:25:06;;;;;;;33.17;14.00;;;;;4.70;102337.00;;;;5066189;28;20231;-75
2022/01/15 09:30:56;;;;;;;40.33;15.17;;;;;4.70;102334.00;;;;5060011;28;20323;-71
2022/01/15 09:33:43;;;;;;;34.17;13.50;;;;;4.60;102331.00;;;;5066146;28;20236;-69
2022/01/15 09:36:31;;;;;;;40.77;13.93;;;;;4.60;102324.00;;;;5066585;28;20235;-70
2022/01/15 09:39:18;;;;;;;34.10;12.73;;;;;4.60;102318.00;;;;5066228;28;20312;-72
2022/01/15 09:42:05;;;;;;;34.20;12.67;;;;;4.70;102325.00;;;;5065937;28;20231;-70
2022/01/15 09:44:53;;;;;;;31.17;12.60;;;;;4.60;102327.00;;;;5063409;28;20235;-71
2022/01/15 09:47:41;;;;;;;29.17;12.07;;;;;4.70;102319.00;;;;5080179;28;20535;-70
2022/01/15 09:50:29;;;;;;;29.10;11.17;;;;;4.70;102316.00;;;;5061042;28;20239;-70
2022/01/15 09:53:17;;;;;;;25.77;10.13;;;;;4.70;102323.00;;;;5052703;28;20239;-72
2022/01/15 09:56:06;;;;;;;32.20;12.77;;;;;4.60;102320.00;;;;5060676;28;20654;-73
2022/01/15 09:58:54;;;;;;;29.47;12.07;;;;;4.60;102313.00;;;;5058554;28;20735;-70
2022/01/15 10:01:40;;;;;;;40.33;16.00;;;;;4.70;102310.00;;;;5065040;28;20231;-69
2022/01/15 10:04:29;;;;;;;27.30;11.97;;;;;4.60;102316.00;;;;5079074;28;20797;-71
2022/01/15 10:07:17;;;;;;;25.73;10.57;;;;;4.70;102309.00;;;;5062650;28;20239;-71
2022/01/15 10:10:15;;;;;;;30.17;11.60;;;;;4.80;102319.00;;;;5065320;28;20314;-72
2022/01/15 10:13:14;;;;;;;25.80;10.70;;;;;4.80;102321.00;;;;5066084;28;20293;-69
2022/01/15 10:16:18;;;;;;;25.00;10.87;;;;;4.70;102323.00;;;;5081811;28;20270;-75
2022/01/15 10:19:04;;;;;;;25.50;10.43;;;;;4.70;102314.00;;;;5091811;28;20286;-77
2022/01/15 10:22:05;;;;;;;28.10;10.63;;;;;4.70;102296.00;;;;5093561;28;20235;-76
2022/01/15 10:24:55;;;;;;;28.17;11.03;;;;;4.50;102316.00;;;;5087613;28;20346;-75
2022/01/15 10:27:44;;;;;;;28.13;11.37;;;;;4.70;102323.00;;;;5090428;28;20242;-75
2022/01/15 10:30:31;;;;;;;32.30;11.50;;;;;4.50;102319.00;;;;5084562;28;20231;-73
2022/01/15 10:33:20;;;;;;;36.17;11.63;;;;;4.50;102312.00;;;;5085589;28;20247;-74
2022/01/15 10:36:18;;;;;;;24.37;9.87;;;;;4.60;102324.00;;;;5102522;28;20215;-75
2022/01/15 10:39:15;;;;;;;28.17;11.47;;;;;4.70;102314.00;;;;5082936;28;20231;-71
2022/01/15 10:42:01;;;;;;;30.47;10.37;;;;;4.70;102322.00;;;;5059522;28;20239;-72
2022/01/15 10:44:49;;;;;;;24.60;8.80;;;;;4.80;102305.00;;;;5065846;28;20227;-74
2022/01/15 10:47:40;;;;;;;25.57;9.77;;;;;4.70;102306.00;;;;5065085;28;20362;-69
2022/01/15 10:50:28;;;;;;;23.50;10.30;;;;;4.70;102299.00;;;;5063442;28;20233;-72
2022/01/15 10:53:14;;;;;;;21.23;8.67;;;;;4.70;102296.00;;;;5065271;28;20738;-75
2022/01/15 10:56:01;;;;;;;20.63;9.33;;;;;4.70;102304.00;;;;5066478;28;20227;-72
2022/01/15 10:58:47;;;;;;;22.80;9.43;;;;;4.80;102297.00;;;;5064507;28;20599;-70
2022/01/15 11:01:36;;;;;;;18.77;8.43;;;;;4.70;102295.00;;;;5064959;28;20259;-73
2022/01/15 11:04:34;;;;;;;21.33;9.97;;;;;4.60;102284.00;;;;5062766;28;20318;-73
2022/01/15 11:07:20;;;;;;;22.63;9.73;;;;;4.60;102277.00;;;;5063937;28;20231;-70
2022/01/15 11:10:08;;;;;;;21.00;9.20;;;;;4.70;102275.00;;;;5064765;28;20282;-75
2022/01/15 11:12:55;;;;;;;20.47;9.20;;;;;4.80;102269.00;;;;5058135;28;20265;-72
2022/01/15 11:15:43;;;;;;;19.30;9.40;;;;;4.80;102261.00;;;;5064607;28;20235;-75
2022/01/15 11:18:33;;;;;;;24.50;9.93;;;;;4.80;102263.00;;;;5064839;28;20301;-72
2022/01/15 11:21:20;;;;;;;22.47;9.70;;;;;4.90;102256.00;;;;5064133;28;20258;-72
2022/01/15 11:24:07;;;;;;;21.87;9.83;;;;;5.00;102263.00;;;;5064939;28;20590;-72
2022/01/15 11:26:57;;;;;;;21.20;9.53;;;;;5.10;102266.00;;;;5063879;28;20231;-72
2022/01/15 11:29:46;;;;;;;23.17;10.23;;;;;5.00;102264.00;;;;5064899;28;20227;-72
2022/01/15 11:32:33;;;;;;;22.57;9.93;;;;;5.00;102256.00;;;;5063922;28;20236;-73
2022/01/15 11:35:21;;;;;;;24.80;10.67;;;;;5.10;102258.00;;;;5065066;28;20247;-71
2022/01/15 11:38:08;;;;;;;21.33;9.73;;;;;5.10;102252.00;;;;5064791;28;20239;-72
2022/01/15 11:40:54;;;;;;;21.77;9.93;;;;;5.10;102249.00;;;;5058172;28;20231;-72
2022/01/15 11:43:43;;;;;;;19.70;9.77;;;;;5.20;102252.00;;;;5064520;28;20227;-72
2022/01/15 11:46:32;;;;;;;22.33;10.33;;;;;5.00;102259.00;;;;5064037;28;20231;-72
2022/01/15 11:49:36;;;;;;;22.20;10.40;;;;;5.20;102241.00;;;;5064368;28;20231;-74
2022/01/15 11:52:35;;;;;;;23.73;11.60;;;;;5.10;102233.00;;;;5060903;28;20231;-72
2022/01/15 11:55:24;;;;;;;22.53;10.47;;;;;5.20;102224.00;;;;5063924;28;20231;-71
2022/01/15 11:58:14;;;;;;;20.50;10.20;;;;;5.10;102218.00;;;;5064522;28;20227;-73
2022/01/15 12:01:00;;;;;;;24.47;11.10;;;;;5.20;102225.00;;;;5061742;28;20251;-72
2022/01/15 12:03:47;;;;;;;26.10;11.70;;;;;5.20;102229.00;;;;5067317;28;20375;-72
2022/01/15 12:07:07;;;;;;;26.67;11.97;;;;;5.30;102218.00;;;;5067553;28;20227;-72
2022/01/15 12:09:55;;;;;;;28.47;12.67;;;;;5.20;102209.00;;;;5067140;28;20255;-72
2022/01/15 12:12:45;;;;;;;26.20;11.90;;;;;5.30;102209.00;;;;5067169;28;20327;-73
2022/01/15 12:15:31;;;;;;;25.93;11.17;;;;;5.20;102204.00;;;;5056905;28;20624;-73
2022/01/15 12:18:20;;;;;;;27.77;11.37;;;;;5.20;102195.00;;;;5071283;28;20331;-72
2022/01/15 12:21:08;;;;;;;28.00;12.20;;;;;5.20;102202.00;;;;5064449;28;20286;-72
2022/01/15 12:23:55;;;;;;;28.00;13.00;;;;;5.30;102167.00;;;;5068281;28;21029;-71
2022/01/15 12:27:01;;;;;;;29.10;12.40;;;;;5.30;102197.00;;;;5062252;28;20223;-70
2022/01/15 12:29:57;;;;;;;27.77;11.83;;;;;5.10;102196.00;;;;5056983;28;20236;-71
2022/01/15 12:32:45;;;;;;;29.47;13.10;;;;;5.10;102191.00;;;;5060211;28;20219;-69
2022/01/15 12:35:35;;;;;;;28.30;13.00;;;;;5.10;102184.00;;;;5060514;28;20278;-72
2022/01/15 12:38:25;;;;;;;29.63;13.67;;;;;5.10;102187.00;;;;5061123;28;20227;-70
2022/01/15 12:41:16;;;;;;;31.00;14.67;;;;;5.10;102167.00;;;;5059659;28;20239;-72
2022/01/15 12:44:04;;;;;;;31.30;13.20;;;;;5.20;102165.00;;;;5060381;28;20708;-74
2022/01/15 12:46:54;;;;;;;28.97;12.23;;;;;5.20;102162.00;;;;5059349;28;20240;-72
2022/01/15 12:49:43;;;;;;;31.20;12.60;;;;;5.20;102165.00;;;;5070676;28;20223;-72
2022/01/15 12:52:29;;;;;;;28.17;12.97;;;;;5.20;102152.00;;;;5064517;28;20270;-73
2022/01/15 12:55:16;;;;;;;28.60;13.60;;;;;5.20;102142.00;;;;5076952;28;20291;-73
2022/01/15 12:58:04;;;;;;;33.23;13.63;;;;;5.10;102141.00;;;;5068434;28;20227;-72
2022/01/15 13:00:52;;;;;;;32.47;13.87;;;;;5.20;102137.00;;;;5067696;28;20239;-73
2022/01/15 13:03:41;;;;;;;28.80;13.00;;;;;5.30;102133.00;;;;5067117;28;20231;-73
2022/01/15 13:06:28;;;;;;;29.13;12.43;;;;;5.20;102131.00;;;;5067089;28;20884;-75
2022/01/15 13:09:14;;;;;;;28.60;12.40;;;;;5.30;102132.00;;;;5062110;28;20735;-73
2022/01/15 13:12:00;;;;;;;30.60;13.60;;;;;5.30;102122.00;;;;5066269;28;20232;-74
2022/01/15 13:14:46;;;;;;;30.47;12.60;;;;;5.30;102117.00;;;;5066681;28;20313;-74
2022/01/15 13:17:34;;;;;;;29.07;12.53;;;;;5.30;102114.00;;;;5066176;28;20230;-71
2022/01/15 13:20:28;;;;;;;31.93;13.80;;;;;5.20;102113.00;;;;5060947;28;20298;-74
2022/01/15 13:23:16;;;;;;;38.27;15.63;;;;;5.30;102105.00;;;;5061870;28;20236;-72
2022/01/15 13:26:02;;;;;;;33.80;13.80;;;;;5.10;102108.00;;;;5058207;28;20275;-69
2022/01/15 13:28:49;;;;;;;29.70;12.93;;;;;5.10;102100.00;;;;5057793;28;20228;-72
2022/01/15 13:31:37;;;;;;;25.50;11.87;;;;;5.00;102104.00;;;;5065291;28;21028;-72
2022/01/15 13:34:29;;;;;;;26.83;11.90;;;;;5.00;102096.00;;;;5062008;28;20243;-72
2022/01/15 13:37:19;;;;;;;28.13;12.80;;;;;4.90;102098.00;;;;5054635;28;20232;-72
2022/01/15 13:40:07;;;;;;;28.17;12.13;;;;;4.80;102087.00;;;;5057577;28;20239;-72
2022/01/15 13:42:53;;;;;;;29.97;12.17;;;;;4.80;102090.00;;;;5056902;28;20247;-73
2022/01/15 13:45:43;;;;;;;32.90;13.07;;;;;4.70;102088.00;;;;5061660;28;20223;-69
2022/01/15 13:48:29;;;;;;;28.27;12.73;;;;;4.80;102077.00;;;;5058626;28;20711;-72
2022/01/15 13:54:22;;;;;;;36.20;14.23;;;;;4.80;102067.00;;;;5062468;28;20722;-72
2022/01/15 13:57:10;;;;;;;38.60;15.47;;;;;4.80;102068.00;;;;5053938;28;20229;-71
2022/01/15 13:59:58;;;;;;;33.83;13.73;;;;;4.80;102047.00;;;;5057878;28;20227;-71